Time;durP1;ratioP1;P1;durP2;ratioP2;P2;SDS_P1;SDS_P2;PMS_P1;PMS_P2;Temp;Humidity;BMP_temperature;BMP_pressure;BME280_temperature;BME280_humidity;BME280_pressure;Samples;Min_cycle;Max_cycle;Signal;HPM_P1;HPM_P2
2021/01/28 00:00:19;;;;;;;87.15;25.48;;;6.30;99.90;;;;;;4937980;29;20142;-86
2021/01/28 00:02:44;;;;;;;96.10;27.33;;;6.20;99.90;;;;;;4953608;29;20042;-86
2021/01/28 00:05:31;;;;;;;81.78;23.77;;;6.30;99.90;;;;;;4953397;29;20480;-86
2021/01/28 00:08:01;;;;;;;72.90;22.95;;;6.20;99.90;;;;;;4898431;29;20087;-85
2021/01/28 00:10:28;;;;;;;72.85;23.08;;;6.20;99.90;;;;;;4914477;29;20067;-86
2021/01/28 00:12:55;;;;;;;76.05;22.33;;;6.20;99.90;;;;;;4898642;29;20044;-87
2021/01/28 00:15:24;;;;;;;70.75;22.25;;;6.20;99.90;;;;;;4895093;29;20040;-86
2021/01/28 00:17:50;;;;;;;72.53;21.73;;;6.20;99.90;;;;;;4911213;29;20512;-86
2021/01/28 00:20:37;;;;;;;75.07;20.83;;;6.20;99.90;;;;;;4910887;29;20053;-86
2021/01/28 00:23:04;;;;;;;68.35;19.40;;;6.20;99.90;;;;;;4910992;29;20073;-86
2021/01/28 00:25:30;;;;;;;86.65;23.50;;;6.20;99.90;;;;;;4911038;29;20043;-86
2021/01/28 00:27:56;;;;;;;92.05;28.15;;;6.20;99.90;;;;;;4912481;29;20040;-86
2021/01/28 00:30:28;;;;;;;78.25;24.00;;;6.20;99.90;;;;;;4914659;29;20168;-86
2021/01/28 00:32:54;;;;;;;81.90;24.00;;;6.20;99.90;;;;;;4899210;29;20044;-86
2021/01/28 00:35:30;;;;;;;68.50;22.35;;;6.20;99.90;;;;;;4897923;29;20042;-84
2021/01/28 00:37:57;;;;;;;78.05;24.23;;;6.20;99.90;;;;;;4898345;29;20055;-86
2021/01/28 00:40:24;;;;;;;70.63;20.70;;;6.20;99.90;;;;;;4898210;29;20028;-87
2021/01/28 00:42:50;;;;;;;61.33;19.50;;;6.20;99.90;;;;;;4898205;29;20531;-86
2021/01/28 00:45:22;;;;;;;57.42;18.92;;;6.20;99.90;;;;;;4945840;29;20059;-86
2021/01/28 00:47:48;;;;;;;66.57;21.10;;;6.20;99.90;;;;;;4952935;29;20572;-87
2021/01/28 00:50:16;;;;;;;60.78;18.67;;;6.20;99.90;;;;;;4984959;28;20043;-86
2021/01/28 00:52:42;;;;;;;62.47;19.38;;;6.20;99.90;;;;;;4952530;29;20031;-86
2021/01/28 00:55:10;;;;;;;62.08;18.27;;;6.20;99.90;;;;;;4952558;29;20039;-86
2021/01/28 00:57:40;;;;;;;56.95;16.67;;;6.10;99.90;;;;;;4953394;29;20031;-86
2021/01/28 01:00:16;;;;;;;61.22;17.85;;;6.20;99.90;;;;;;4968714;29;20042;-85
2021/01/28 01:02:45;;;;;;;63.08;19.08;;;6.10;99.90;;;;;;4968669;29;20035;-86
2021/01/28 01:05:34;;;;;;;64.53;17.02;;;6.10;99.90;;;;;;4952449;29;20038;-86
2021/01/28 01:08:05;;;;;;;58.47;18.40;;;6.10;99.90;;;;;;4897435;29;20195;-85
2021/01/28 01:10:45;;;;;;;70.10;21.58;;;6.10;99.90;;;;;;4897321;29;20048;-86
2021/01/28 01:13:17;;;;;;;67.13;19.02;;;6.10;99.90;;;;;;4897914;29;20037;-87
2021/01/28 01:15:42;;;;;;;74.72;19.40;;;6.10;99.90;;;;;;4894379;29;20016;-86
2021/01/28 01:18:11;;;;;;;61.25;17.75;;;6.10;99.90;;;;;;4910071;29;20061;-86
2021/01/28 01:20:39;;;;;;;58.13;16.40;;;6.10;99.90;;;;;;4909798;29;20036;-87
2021/01/28 01:23:06;;;;;;;63.63;17.70;;;6.00;99.90;;;;;;4909802;29;20041;-85
2021/01/28 01:25:49;;;;;;;59.20;17.30;;;6.00;99.90;;;;;;4909812;29;20055;-86
2021/01/28 01:28:16;;;;;;;58.33;16.77;;;6.10;99.90;;;;;;4910056;29;20034;-86
2021/01/28 01:30:50;;;;;;;56.63;15.60;;;6.00;99.90;;;;;;4912672;29;20139;-87
2021/01/28 01:33:16;;;;;;;64.68;18.48;;;6.00;99.90;;;;;;4897110;29;20072;-86
2021/01/28 01:35:57;;;;;;;54.80;15.48;;;6.00;99.90;;;;;;4898819;29;20108;-86
2021/01/28 01:38:24;;;;;;;60.80;17.27;;;6.00;99.90;;;;;;4912740;29;20043;-86
2021/01/28 01:40:56;;;;;;;57.88;14.38;;;6.00;99.90;;;;;;4912736;29;20035;-85
2021/01/28 01:43:24;;;;;;;55.17;14.95;;;5.90;99.90;;;;;;4912955;29;20032;-86
2021/01/28 01:45:55;;;;;;;63.38;15.73;;;6.00;99.90;;;;;;4945059;29;20043;-86
2021/01/28 01:48:28;;;;;;;60.70;16.17;;;6.00;99.90;;;;;;4967799;29;20027;-87
2021/01/28 01:51:14;;;;;;;63.50;15.73;;;6.00;99.90;;;;;;4951530;29;20058;-86
2021/01/28 01:53:49;;;;;;;65.55;14.75;;;5.90;99.90;;;;;;4951413;29;20079;-86
2021/01/28 01:56:34;;;;;;;57.50;14.73;;;6.00;99.90;;;;;;4967581;29;20058;-86
2021/01/28 01:59:08;;;;;;;60.15;15.95;;;5.90;99.90;;;;;;4967504;29;20041;-85
2021/01/28 02:02:01;;;;;;;50.90;13.80;;;6.00;99.90;;;;;;4967441;29;20074;-86
2021/01/28 02:04:50;;;;;;;60.20;15.02;;;6.00;99.90;;;;;;4980842;28;20070;-86
2021/01/28 02:07:42;;;;;;;68.18;15.50;;;5.90;99.90;;;;;;4979903;28;20082;-86
2021/01/28 02:10:37;;;;;;;55.70;13.93;;;6.00;99.90;;;;;;4978217;28;20103;-85
2021/01/28 02:13:31;;;;;;;60.42;16.13;;;5.90;99.90;;;;;;4974060;28;20034;-86
2021/01/28 02:16:11;;;;;;;69.25;16.27;;;5.90;99.90;;;;;;4982718;28;20106;-86
2021/01/28 02:18:45;;;;;;;62.45;15.02;;;5.90;99.90;;;;;;5022550;28;20049;-86
2021/01/28 02:21:34;;;;;;;62.85;14.98;;;5.90;99.90;;;;;;5005859;28;20100;-86
2021/01/28 02:24:31;;;;;;;63.75;14.48;;;5.90;99.90;;;;;;5022256;28;20308;-86
2021/01/28 02:26:56;;;;;;;63.95;14.82;;;5.90;99.90;;;;;;4990070;28;20023;-86
2021/01/28 02:29:50;;;;;;;56.05;14.95;;;6.00;99.90;;;;;;5003137;28;20034;-86
2021/01/28 02:32:15;;;;;;;59.92;14.75;;;6.00;99.90;;;;;;4971668;28;20039;-86
2021/01/28 02:34:47;;;;;;;66.20;16.75;;;5.90;99.90;;;;;;4986129;28;20038;-86
2021/01/28 02:37:19;;;;;;;68.47;15.52;;;6.00;99.90;;;;;;4970603;28;20510;-86
2021/01/28 02:39:48;;;;;;;67.25;15.90;;;5.90;99.90;;;;;;4986482;28;20031;-86
2021/01/28 02:42:23;;;;;;;;;;;6.00;99.90;;;;;;4986392;28;20027;-86
2021/01/28 02:44:56;;;;;;;59.97;13.18;;;6.00;99.90;;;;;;4985984;28;19952;-86
2021/01/28 02:47:40;;;;;;;70.30;15.50;;;6.00;99.90;;;;;;4986544;28;20045;-86
2021/01/28 02:50:27;;;;;;;63.20;14.05;;;6.00;99.90;;;;;;4985889;28;20051;-85
2021/01/28 02:52:56;;;;;;;60.00;14.20;;;6.00;99.90;;;;;;4986129;28;20027;-86
2021/01/28 02:55:25;;;;;;;63.40;15.40;;;5.90;99.90;;;;;;4985824;28;20027;-86
2021/01/28 02:57:52;;;;;;;59.65;16.63;;;5.90;99.90;;;;;;4969975;28;20031;-85
2021/01/28 03:00:24;;;;;;;81.43;16.20;;;5.90;99.90;;;;;;4985730;28;20475;-86
2021/01/28 03:02:51;;;;;;;85.75;16.63;;;6.00;99.90;;;;;;4985865;28;20030;-86
2021/01/28 03:09:07;;;;;;;56.80;14.65;;;5.90;99.90;;;;;;4936302;29;20055;-85
2021/01/28 03:11:44;;;;;;;73.95;15.77;;;5.90;99.90;;;;;;4930254;29;20134;-86
2021/01/28 03:14:25;;;;;;;52.00;14.18;;;5.90;99.90;;;;;;4916318;29;20040;-86
2021/01/28 03:17:02;;;;;;;54.65;11.88;;;5.90;99.90;;;;;;4897637;29;20036;-87
2021/01/28 03:19:35;;;;;;;45.30;13.60;;;5.90;99.90;;;;;;4881883;29;20135;-86
2021/01/28 03:22:12;;;;;;;68.03;13.93;;;5.80;99.90;;;;;;4882145;29;20037;-86
2021/01/28 03:24:43;;;;;;;50.38;12.80;;;5.80;99.90;;;;;;4896111;29;20635;-86
2021/01/28 03:27:15;;;;;;;47.50;13.63;;;5.90;99.90;;;;;;4881678;29;20060;-86
2021/01/28 03:29:40;;;;;;;41.60;11.70;;;5.80;99.90;;;;;;4880456;29;20426;-86
2021/01/28 03:32:06;;;;;;;41.47;12.80;;;5.80;99.90;;;;;;4912457;29;20107;-86
2021/01/28 03:34:34;;;;;;;76.22;12.15;;;5.80;99.90;;;;;;4918133;29;20121;-86
2021/01/28 03:37:01;;;;;;;42.33;11.15;;;5.80;99.90;;;;;;4902267;29;20563;-86
2021/01/28 03:39:33;;;;;;;47.42;13.50;;;5.80;99.90;;;;;;4893224;29;20060;-86
2021/01/28 03:41:58;;;;;;;70.53;13.57;;;5.80;99.90;;;;;;4895931;29;20035;-86
2021/01/28 03:44:24;;;;;;;44.38;14.02;;;5.80;99.90;;;;;;4906783;29;20043;-86
2021/01/28 03:46:52;;;;;;;44.22;12.75;;;5.80;99.90;;;;;;4986210;28;20066;-85
2021/01/28 03:49:22;;;;;;;44.22;13.02;;;5.80;99.90;;;;;;4975063;28;20043;-86
2021/01/28 03:51:52;;;;;;;48.72;13.07;;;5.80;99.90;;;;;;4982280;28;20086;-86
2021/01/28 03:54:36;;;;;;;37.00;11.60;;;5.80;99.90;;;;;;4983495;28;20050;-86
2021/01/28 03:57:08;;;;;;;78.82;13.85;;;5.80;99.90;;;;;;4985803;28;20049;-86
2021/01/28 03:59:44;;;;;;;47.45;13.70;;;5.80;99.90;;;;;;4985838;28;20062;-87
2021/01/28 04:02:19;;;;;;;46.38;13.00;;;5.80;99.90;;;;;;4969638;29;20027;-86
2021/01/28 04:05:34;;;;;;;53.08;13.15;;;5.80;99.90;;;;;;4968596;28;20066;-86
2021/01/28 04:08:19;;;;;;;42.55;12.73;;;5.80;99.90;;;;;;4948882;29;20043;-87
2021/01/28 04:11:14;;;;;;;40.60;12.20;;;5.80;99.90;;;;;;4959744;29;20043;-86
2021/01/28 04:13:40;;;;;;;55.72;12.13;;;5.80;99.90;;;;;;4952082;29;20102;-86
2021/01/28 04:16:08;;;;;;;40.45;12.10;;;5.80;99.90;;;;;;4967868;28;20095;-86
2021/01/28 04:18:35;;;;;;;43.05;11.98;;;5.80;99.90;;;;;;4917656;29;20073;-86
2021/01/28 04:21:20;;;;;;;39.70;11.65;;;5.80;99.90;;;;;;4935688;29;20035;-86
2021/01/28 04:23:48;;;;;;;41.50;13.63;;;5.80;99.90;;;;;;4917218;29;20055;-86
2021/01/28 04:26:18;;;;;;;38.90;11.73;;;5.80;99.90;;;;;;4917326;29;20054;-86
2021/01/28 04:28:50;;;;;;;45.83;12.88;;;5.80;99.90;;;;;;4948083;29;20292;-86
2021/01/28 04:31:34;;;;;;;35.42;10.88;;;5.80;99.90;;;;;;4953995;29;20058;-86
2021/01/28 04:34:05;;;;;;;41.28;13.93;;;5.80;99.90;;;;;;4951894;29;20054;-86
2021/01/28 04:36:31;;;;;;;39.92;10.98;;;5.80;99.90;;;;;;4951784;29;20031;-85
2021/01/28 04:39:32;;;;;;;39.88;12.32;;;5.80;99.90;;;;;;4873307;29;20041;-86
2021/01/28 04:42:02;;;;;;;43.08;12.20;;;5.80;99.90;;;;;;4953115;29;20050;-86
2021/01/28 04:44:28;;;;;;;41.20;11.60;;;5.80;99.90;;;;;;4958414;28;20070;-86
2021/01/28 04:47:18;;;;;;;36.05;11.23;;;5.80;99.90;;;;;;5004447;28;20067;-86
2021/01/28 04:49:51;;;;;;;;;;;5.80;99.90;;;;;;4989670;28;20066;-86
2021/01/28 04:52:30;;;;;;;37.67;10.82;;;5.80;99.90;;;;;;5003310;28;19910;-87
2021/01/28 04:55:47;;;;;;;38.00;9.90;;;5.80;99.90;;;;;;4987745;28;20092;-87
2021/01/28 04:58:13;;;;;;;35.55;9.70;;;5.80;99.90;;;;;;5004244;28;20384;-87
2021/01/28 05:00:56;;;;;;;31.40;10.70;;;5.80;99.90;;;;;;5004023;28;20031;-87
2021/01/28 05:03:45;;;;;;;38.95;11.45;;;5.80;99.90;;;;;;5004016;28;20085;-87
2021/01/28 05:06:20;;;;;;;28.08;9.45;;;5.80;99.90;;;;;;5003877;28;20031;-87
2021/01/28 05:09:06;;;;;;;30.33;9.40;;;5.80;99.90;;;;;;5001677;28;20054;-86
2021/01/28 05:12:04;;;;;;;27.87;8.13;;;5.80;99.90;;;;;;4967453;28;20057;-87
2021/01/28 05:14:50;;;;;;;33.90;9.50;;;5.80;99.90;;;;;;5004088;28;20037;-87
2021/01/28 05:17:30;;;;;;;31.40;9.98;;;5.80;99.90;;;;;;5008956;28;20030;-87
2021/01/28 05:20:21;;;;;;;33.42;9.75;;;5.70;99.90;;;;;;4987912;28;20042;-87
2021/01/28 05:23:29;;;;;;;31.05;9.63;;;5.70;99.90;;;;;;4985624;28;20035;-86
2021/01/28 05:25:55;;;;;;;32.30;8.65;;;5.70;99.90;;;;;;4952110;29;20027;-87
2021/01/28 05:28:37;;;;;;;36.13;10.35;;;5.70;99.90;;;;;;4967900;29;20035;-87
2021/01/28 05:31:30;;;;;;;45.30;12.60;;;5.70;99.90;;;;;;4977037;28;20074;-87
2021/01/28 05:34:34;;;;;;;31.52;9.80;;;5.70;99.90;;;;;;4916515;29;20051;-87
2021/01/28 05:37:24;;;;;;;42.72;12.15;;;5.60;99.90;;;;;;4975043;28;20049;-86
2021/01/28 05:40:26;;;;;;;37.30;10.95;;;5.60;99.90;;;;;;4987427;28;20042;-87
2021/01/28 05:43:35;;;;;;;37.10;10.40;;;5.60;99.90;;;;;;4988173;28;20034;-87
2021/01/28 05:46:12;;;;;;;44.83;11.20;;;5.60;99.90;;;;;;4967606;28;20034;-87
2021/01/28 05:49:11;;;;;;;35.42;9.60;;;5.60;99.90;;;;;;4959349;28;20455;-87
2021/01/28 05:52:10;;;;;;;35.63;10.13;;;5.60;99.90;;;;;;4967321;29;20035;-87
2021/01/28 05:55:04;;;;;;;43.13;10.23;;;5.60;99.90;;;;;;4952775;29;20037;-88
2021/01/28 05:57:52;;;;;;;;;;;5.60;99.90;;;;;;4952747;29;20571;-87
2021/01/28 06:00:38;;;;;;;31.95;9.07;;;5.50;99.90;;;;;;4967654;29;20006;-88
2021/01/28 06:03:44;;;;;;;32.60;10.00;;;5.50;99.90;;;;;;4951547;28;20035;-87
2021/01/28 06:07:08;;;;;;;36.13;9.55;;;5.50;99.90;;;;;;4978473;28;20062;-87
2021/01/28 06:10:20;;;;;;;32.45;8.68;;;5.50;99.90;;;;;;4998254;28;20055;-87
2021/01/28 06:13:10;;;;;;;32.47;9.70;;;5.50;99.90;;;;;;4967221;29;20042;-86
2021/01/28 06:15:59;;;;;;;39.83;10.70;;;5.50;99.90;;;;;;4968557;28;20027;-87
2021/01/28 06:18:53;;;;;;;31.83;8.27;;;5.50;99.90;;;;;;4982737;28;20059;-87
2021/01/28 06:21:58;;;;;;;34.65;8.65;;;5.50;99.90;;;;;;4953546;29;20039;-88
2021/01/28 06:24:53;;;;;;;33.72;9.60;;;5.50;99.90;;;;;;4968217;29;20086;-87
2021/01/28 06:27:45;;;;;;;36.72;8.95;;;5.50;99.90;;;;;;4967101;28;20031;-87
2021/01/28 06:30:24;;;;;;;28.10;8.88;;;5.50;99.90;;;;;;4951769;28;20046;-87
2021/01/28 06:33:16;;;;;;;25.75;7.57;;;5.50;99.90;;;;;;4986672;28;20037;-87
2021/01/28 06:36:18;;;;;;;27.30;6.47;;;5.50;99.90;;;;;;4986389;28;20042;-87
2021/01/28 06:39:14;;;;;;;22.52;6.25;;;5.40;99.90;;;;;;4986226;28;20514;-87
2021/01/28 06:42:05;;;;;;;19.15;4.82;;;5.40;99.90;;;;;;4986278;28;20069;-87
2021/01/28 06:44:51;;;;;;;17.05;4.18;;;5.40;99.90;;;;;;4987307;28;20094;-87
2021/01/28 06:48:00;;;;;;;15.43;3.28;;;5.30;99.90;;;;;;4990078;28;20081;-87
2021/01/28 06:50:51;;;;;;;11.90;3.10;;;5.30;99.90;;;;;;4986431;28;20039;-86
2021/01/28 06:53:30;;;;;;;14.75;3.17;;;5.30;99.90;;;;;;4985784;28;20498;-87
2021/01/28 06:56:17;;;;;;;12.02;2.65;;;5.30;99.90;;;;;;4986146;28;20119;-87
2021/01/28 06:59:46;;;;;;;12.13;2.50;;;5.30;99.90;;;;;;4973028;28;20031;-87
2021/01/28 07:02:33;;;;;;;12.45;3.00;;;5.20;99.90;;;;;;4985848;28;20047;-87
2021/01/28 07:05:24;;;;;;;17.30;3.55;;;5.20;99.90;;;;;;4982084;28;20126;-87
2021/01/28 07:08:32;;;;;;;11.13;2.53;;;5.20;99.90;;;;;;4968563;28;20031;-87
2021/01/28 07:11:36;;;;;;;12.50;2.50;;;5.20;99.90;;;;;;4961842;28;20047;-87
2021/01/28 07:14:22;;;;;;;14.07;3.05;;;5.20;99.90;;;;;;4984594;28;20046;-86
2021/01/28 07:17:12;;;;;;;7.90;2.78;;;5.20;99.90;;;;;;4951667;29;20074;-87
2021/01/28 07:19:41;;;;;;;7.15;1.63;;;5.20;99.90;;;;;;4949176;29;20035;-87
2021/01/28 07:22:26;;;;;;;9.18;2.00;;;5.10;99.90;;;;;;4949228;29;20112;-87
2021/01/28 07:24:56;;;;;;;8.63;1.77;;;5.10;99.90;;;;;;4949192;29;20054;-87
2021/01/28 07:27:42;;;;;;;8.13;1.40;;;5.10;99.90;;;;;;4949169;29;20038;-87
2021/01/28 07:30:36;;;;;;;7.47;1.55;;;5.10;99.90;;;;;;4950185;28;20047;-87
2021/01/28 07:33:02;;;;;;;7.55;1.75;;;5.10;99.90;;;;;;4987612;28;20069;-87
2021/01/28 07:36:15;;;;;;;9.15;2.30;;;5.10;99.90;;;;;;4987522;28;20422;-88
2021/01/28 07:39:00;;;;;;;10.60;2.92;;;5.10;99.90;;;;;;4988242;28;20042;-85
2021/01/28 07:41:57;;;;;;;5.88;1.98;;;5.10;99.90;;;;;;5004144;28;20042;-87
2021/01/28 07:44:46;;;;;;;11.20;3.13;;;5.10;99.90;;;;;;4998896;28;20548;-87
2021/01/28 07:47:30;;;;;;;8.68;2.97;;;5.10;99.90;;;;;;4987228;28;20035;-87
2021/01/28 07:50:29;;;;;;;9.18;2.97;;;5.10;99.90;;;;;;4985380;28;20043;-87
2021/01/28 07:52:55;;;;;;;8.27;2.83;;;5.10;99.90;;;;;;4969542;28;20031;-87
2021/01/28 07:55:35;;;;;;;10.35;3.05;;;5.10;99.90;;;;;;4985212;28;20027;-87
2021/01/28 07:58:04;;;;;;;9.25;3.55;;;5.10;99.90;;;;;;4985482;28;20566;-87
2021/01/28 08:00:38;;;;;;;8.27;2.80;;;5.10;99.90;;;;;;4985849;28;20058;-87
2021/01/28 08:03:12;;;;;;;13.35;3.80;;;5.10;99.90;;;;;;4989530;28;20062;-87
2021/01/28 08:05:39;;;;;;;8.32;3.75;;;5.10;99.90;;;;;;4989313;28;20058;-87
2021/01/28 08:08:09;;;;;;;10.05;2.80;;;5.10;99.90;;;;;;4988884;28;20070;-88
2021/01/28 08:10:38;;;;;;;8.15;3.10;;;5.10;99.90;;;;;;4989135;28;20065;-86
2021/01/28 08:13:30;;;;;;;9.38;3.30;;;5.10;99.90;;;;;;4988992;28;20035;-87
2021/01/28 08:15:59;;;;;;;9.80;2.88;;;5.10;99.90;;;;;;4973173;28;20098;-87
2021/01/28 08:18:29;;;;;;;9.70;3.15;;;5.20;99.90;;;;;;4988785;28;20039;-87
2021/01/28 08:21:05;;;;;;;8.25;2.58;;;5.10;99.90;;;;;;4988899;28;20058;-87
2021/01/28 08:23:32;;;;;;;9.43;2.92;;;5.20;99.90;;;;;;4988561;28;20053;-86
2021/01/28 08:26:01;;;;;;;8.80;2.50;;;5.10;99.90;;;;;;4988681;28;20027;-87
2021/01/28 08:28:29;;;;;;;6.65;2.10;;;5.20;99.90;;;;;;4989845;28;20042;-87
2021/01/28 08:31:08;;;;;;;6.50;1.77;;;5.20;99.90;;;;;;4988288;28;20043;-86
2021/01/28 08:33:35;;;;;;;8.23;2.30;;;5.10;99.90;;;;;;4988697;28;20089;-86
2021/01/28 08:36:02;;;;;;;7.05;2.42;;;5.20;99.90;;;;;;4972088;28;20480;-87
2021/01/28 08:38:30;;;;;;;9.60;2.75;;;5.20;99.90;;;;;;4988404;28;20031;-87
2021/01/28 08:41:01;;;;;;;6.50;1.77;;;5.20;99.90;;;;;;4987918;28;20039;-86
2021/01/28 08:43:27;;;;;;;6.57;1.67;;;5.20;99.90;;;;;;4988272;28;20429;-87
2021/01/28 08:46:13;;;;;;;7.30;2.25;;;5.20;99.90;;;;;;4971556;28;20037;-87
2021/01/28 08:48:40;;;;;;;6.65;1.98;;;5.20;99.90;;;;;;4987696;28;20034;-87
2021/01/28 08:51:10;;;;;;;5.68;1.95;;;5.20;99.90;;;;;;4987512;28;20078;-87
2021/01/28 08:53:36;;;;;;;7.20;2.10;;;5.20;99.90;;;;;;4987308;28;20129;-86
2021/01/28 08:56:16;;;;;;;6.40;2.33;;;5.20;99.90;;;;;;4987862;28;20031;-87
2021/01/28 08:58:42;;;;;;;7.72;2.45;;;5.20;99.90;;;;;;4971552;28;20038;-87
2021/01/28 09:01:10;;;;;;;6.15;2.15;;;5.20;99.90;;;;;;4987323;28;20035;-87
2021/01/28 09:03:56;;;;;;;8.20;2.45;;;5.20;99.90;;;;;;4987532;28;20030;-87
2021/01/28 09:06:22;;;;;;;9.77;3.28;;;5.20;99.90;;;;;;4971003;28;20030;-87
2021/01/28 09:09:02;;;;;;;8.48;3.00;;;5.20;99.90;;;;;;4987153;28;20058;-87
2021/01/28 09:11:29;;;;;;;8.50;3.28;;;5.20;99.90;;;;;;4971014;28;20038;-87
2021/01/28 09:14:22;;;;;;;7.28;3.00;;;5.20;99.90;;;;;;4986979;28;20035;-85
2021/01/28 09:16:51;;;;;;;8.90;2.63;;;5.20;99.90;;;;;;4987124;28;20034;-87
2021/01/28 09:19:20;;;;;;;8.38;2.72;;;5.20;99.90;;;;;;4990423;28;20036;-87
2021/01/28 09:21:51;;;;;;;9.15;2.75;;;5.20;99.90;;;;;;5007523;28;20062;-86
2021/01/28 09:24:22;;;;;;;8.95;2.92;;;5.20;99.90;;;;;;5007144;28;20026;-87
2021/01/28 09:27:18;;;;;;;9.25;3.45;;;5.20;99.90;;;;;;4990219;28;20034;-87
2021/01/28 09:29:45;;;;;;;11.27;4.43;;;5.20;99.90;;;;;;5006167;28;20049;-87
2021/01/28 09:32:26;;;;;;;13.55;4.68;;;5.30;99.90;;;;;;4988829;28;20035;-87
2021/01/28 09:35:08;;;;;;;;;;;5.30;99.90;;;;;;4986894;28;20098;-87
2021/01/28 09:37:38;;;;;;;10.20;4.28;;;5.30;99.90;;;;;;4986908;28;20355;-87
2021/01/28 09:40:46;;;;;;;10.45;3.30;;;5.30;99.90;;;;;;4986674;28;20045;-86
2021/01/28 09:43:33;;;;;;;10.05;4.13;;;5.30;99.90;;;;;;4962334;28;20034;-87
2021/01/28 09:46:24;;;;;;;10.98;4.43;;;5.30;99.90;;;;;;4970226;28;20042;-87
2021/01/28 09:48:53;;;;;;;7.78;3.85;;;5.30;99.90;;;;;;4986731;28;20031;-86
2021/01/28 09:51:27;;;;;;;10.43;4.32;;;5.30;99.90;;;;;;4986195;28;20046;-87
2021/01/28 09:54:09;;;;;;;9.77;5.30;;;5.30;99.90;;;;;;4970514;28;20026;-87
2021/01/28 09:56:34;;;;;;;14.13;6.05;;;5.40;99.90;;;;;;4986556;28;20066;-87
2021/01/28 09:59:00;;;;;;;10.55;4.90;;;5.40;99.90;;;;;;4986640;28;20027;-87
2021/01/28 10:01:26;;;;;;;10.35;5.32;;;5.40;99.90;;;;;;4970094;28;20035;-87
2021/01/28 10:03:51;;;;;;;11.52;5.22;;;5.40;99.90;;;;;;4970002;28;20038;-87
2021/01/28 10:06:17;;;;;;;9.15;4.18;;;5.40;99.90;;;;;;4986053;28;20042;-86
2021/01/28 10:08:43;;;;;;;9.18;4.78;;;5.40;99.90;;;;;;4986112;28;20047;-86
2021/01/28 10:11:08;;;;;;;9.88;5.10;;;5.40;99.90;;;;;;4986183;28;20054;-86
2021/01/28 10:13:34;;;;;;;11.48;5.47;;;5.40;99.90;;;;;;4986018;28;20033;-87
2021/01/28 10:16:00;;;;;;;10.13;5.13;;;5.40;99.90;;;;;;4995490;28;20041;-86
2021/01/28 10:18:26;;;;;;;10.10;6.00;;;5.40;99.90;;;;;;5005260;28;20089;-87
2021/01/28 10:20:52;;;;;;;13.50;6.57;;;5.40;99.90;;;;;;5005381;28;20031;-87
2021/01/28 10:23:19;;;;;;;11.35;5.75;;;5.40;99.90;;;;;;5005440;28;20387;-87
2021/01/28 10:25:44;;;;;;;11.63;6.35;;;5.40;99.90;;;;;;5004974;28;20045;-87
2021/01/28 10:28:10;;;;;;;9.77;5.13;;;5.40;99.90;;;;;;5005557;28;20036;-87
2021/01/28 10:30:36;;;;;;;13.43;5.90;;;5.50;99.90;;;;;;5000645;28;20035;-87
2021/01/28 10:33:03;;;;;;;9.80;5.75;;;5.40;99.90;;;;;;4985329;28;20039;-87
2021/01/28 10:35:31;;;;;;;10.50;5.38;;;5.50;99.90;;;;;;4985368;28;20041;-87
2021/01/28 10:37:57;;;;;;;8.85;5.20;;;5.50;99.90;;;;;;4985744;28;20023;-87
2021/01/28 10:40:24;;;;;;;8.85;5.10;;;5.50;99.90;;;;;;4985523;28;20038;-87
2021/01/28 10:42:54;;;;;;;11.20;6.25;;;5.50;99.90;;;;;;4985298;28;20027;-87
2021/01/28 10:45:24;;;;;;;10.43;6.55;;;5.50;99.90;;;;;;4985380;28;20538;-86
2021/01/28 10:47:51;;;;;;;8.57;5.68;;;5.50;99.90;;;;;;4985460;28;20034;-88
2021/01/28 10:50:17;;;;;;;9.77;5.43;;;5.50;99.90;;;;;;4969101;28;20110;-87
2021/01/28 10:52:42;;;;;;;9.63;5.18;;;5.50;99.90;;;;;;4985301;28;20037;-87
2021/01/28 10:55:09;;;;;;;9.30;5.25;;;5.50;99.90;;;;;;4985182;28;20070;-87
2021/01/28 10:57:35;;;;;;;8.00;5.10;;;5.50;99.90;;;;;;4985295;28;20031;-87
2021/01/28 11:00:03;;;;;;;10.10;5.38;;;5.50;99.90;;;;;;4985287;28;20069;-87
2021/01/28 11:02:29;;;;;;;10.32;5.97;;;5.50;99.90;;;;;;4985113;28;20031;-87
2021/01/28 11:04:54;;;;;;;8.95;5.07;;;5.50;99.90;;;;;;4985291;28;20041;-88
2021/01/28 11:07:20;;;;;;;10.23;5.55;;;5.50;99.90;;;;;;4985486;28;20027;-88
2021/01/28 11:09:45;;;;;;;8.32;5.15;;;5.50;99.90;;;;;;4985004;28;20147;-87
2021/01/28 11:12:11;;;;;;;9.25;5.57;;;5.50;99.90;;;;;;4985279;28;20094;-87
2021/01/28 11:14:37;;;;;;;6.95;4.28;;;5.50;99.90;;;;;;4985143;28;20030;-87
2021/01/28 11:17:02;;;;;;;8.48;5.13;;;5.50;99.90;;;;;;4999718;28;20369;-87
2021/01/28 11:19:28;;;;;;;9.10;5.50;;;5.50;99.90;;;;;;4985444;28;20039;-87
2021/01/28 11:21:54;;;;;;;10.23;5.28;;;5.50;99.90;;;;;;4984941;28;20057;-88
2021/01/28 11:24:19;;;;;;;7.65;5.00;;;5.50;99.90;;;;;;4985051;28;20066;-87
2021/01/28 11:26:45;;;;;;;11.73;5.78;;;5.50;99.90;;;;;;4984964;28;20042;-87
2021/01/28 11:29:11;;;;;;;11.82;5.93;;;5.50;99.90;;;;;;5001197;28;20027;-87
2021/01/28 11:31:36;;;;;;;9.20;5.53;;;5.50;99.90;;;;;;4984984;28;20479;-87
2021/01/28 11:34:03;;;;;;;9.57;5.70;;;5.50;99.90;;;;;;4985090;28;20034;-87
2021/01/28 11:36:30;;;;;;;11.70;5.10;;;5.50;99.90;;;;;;4985923;28;20121;-87
2021/01/28 11:38:56;;;;;;;9.30;5.03;;;5.50;99.90;;;;;;4988899;28;20135;-87
2021/01/28 11:41:21;;;;;;;10.07;5.68;;;5.60;99.90;;;;;;4988738;28;20043;-87
2021/01/28 11:43:47;;;;;;;8.60;4.88;;;5.50;99.90;;;;;;4988553;28;20054;-88
2021/01/28 11:46:13;;;;;;;9.80;5.55;;;5.60;99.90;;;;;;4988663;28;20034;-88
2021/01/28 11:48:38;;;;;;;10.38;6.38;;;5.60;99.90;;;;;;4988793;28;20026;-87
2021/01/28 11:51:04;;;;;;;14.32;7.40;;;5.60;99.90;;;;;;4988468;28;20035;-88
2021/01/28 11:53:30;;;;;;;12.35;6.78;;;5.60;99.90;;;;;;4987857;28;20026;-86
2021/01/28 11:55:55;;;;;;;11.18;6.10;;;5.60;99.90;;;;;;5004128;28;20110;-87
2021/01/28 11:58:22;;;;;;;10.80;5.97;;;5.60;99.90;;;;;;4998633;28;20054;-88
2021/01/28 12:00:48;;;;;;;11.40;6.60;;;5.70;99.90;;;;;;4987638;28;20051;-88
2021/01/28 12:03:14;;;;;;;10.05;6.00;;;5.70;99.90;;;;;;4986550;28;20046;-87
2021/01/28 12:05:43;;;;;;;10.57;5.75;;;5.70;99.90;;;;;;4983369;28;20034;-88
2021/01/28 12:08:09;;;;;;;9.38;5.03;;;5.80;99.90;;;;;;4993861;28;20065;-88
2021/01/28 12:10:35;;;;;;;8.43;5.18;;;5.80;99.90;;;;;;4971350;28;20102;-88
2021/01/28 12:13:00;;;;;;;8.98;5.05;;;5.80;99.90;;;;;;4970356;28;20047;-88
2021/01/28 12:15:27;;;;;;;7.57;4.50;;;5.90;99.90;;;;;;4985664;28;20038;-88
2021/01/28 12:17:54;;;;;;;8.30;4.95;;;5.90;99.90;;;;;;4971782;28;20072;-88
2021/01/28 12:20:28;;;;;;;7.25;4.43;;;5.90;99.90;;;;;;4971534;28;20045;-89
2021/01/28 12:22:54;;;;;;;8.55;4.60;;;5.90;99.90;;;;;;4911972;28;20030;-88
2021/01/28 12:25:20;;;;;;;7.97;4.97;;;5.90;99.90;;;;;;4971569;28;20027;-88
2021/01/28 12:27:46;;;;;;;9.23;5.15;;;6.00;99.90;;;;;;5003572;28;20038;-88
2021/01/28 12:30:14;;;;;;;7.10;4.53;;;6.00;99.90;;;;;;4971019;28;20070;-88
2021/01/28 12:32:39;;;;;;;8.07;5.03;;;5.90;99.90;;;;;;4985648;28;20029;-88
2021/01/28 12:35:06;;;;;;;8.57;4.93;;;5.90;99.90;;;;;;4971096;28;20031;-88
2021/01/28 12:37:33;;;;;;;7.05;4.57;;;5.90;99.90;;;;;;4970282;28;20026;-87
2021/01/28 12:39:59;;;;;;;8.25;4.50;;;5.90;99.90;;;;;;4987162;28;20094;-88
2021/01/28 12:42:25;;;;;;;8.70;5.38;;;5.90;99.90;;;;;;5003356;28;20038;-88
2021/01/28 12:44:52;;;;;;;7.63;4.13;;;5.90;99.90;;;;;;4970920;28;20051;-88
2021/01/28 12:47:19;;;;;;;7.57;4.93;;;5.80;99.90;;;;;;4983892;28;20049;-87
2021/01/28 12:49:45;;;;;;;7.75;4.13;;;5.80;99.90;;;;;;4984396;28;20098;-88
2021/01/28 12:52:10;;;;;;;7.18;4.13;;;5.80;99.90;;;;;;4967023;28;20034;-87
2021/01/28 12:54:36;;;;;;;7.25;4.25;;;5.90;99.90;;;;;;4986579;28;20037;-88
2021/01/28 12:57:02;;;;;;;6.03;4.13;;;5.90;99.90;;;;;;4970769;28;20031;-88
2021/01/28 12:59:27;;;;;;;6.93;4.20;;;5.90;99.90;;;;;;4986922;28;20027;-88
2021/01/28 13:01:53;;;;;;;7.38;4.07;;;5.90;99.90;;;;;;4984069;28;20042;-88
2021/01/28 13:04:18;;;;;;;7.70;4.97;;;5.80;99.90;;;;;;4967787;28;20028;-87
2021/01/28 13:06:44;;;;;;;5.82;3.50;;;5.90;99.90;;;;;;4986208;28;20069;-88
2021/01/28 13:09:10;;;;;;;7.05;3.88;;;5.90;99.90;;;;;;5002648;28;20046;-88
2021/01/28 13:11:35;;;;;;;7.25;3.70;;;5.80;99.90;;;;;;4970337;28;20042;-88
2021/01/28 13:14:01;;;;;;;4.90;2.42;;;5.80;99.90;;;;;;4967511;28;20031;-88
2021/01/28 13:16:27;;;;;;;6.20;3.15;;;5.90;99.90;;;;;;4987251;28;20037;-88
2021/01/28 13:18:53;;;;;;;7.50;4.05;;;5.80;99.90;;;;;;5002723;28;20074;-88
2021/01/28 13:21:19;;;;;;;4.82;2.70;;;5.80;99.90;;;;;;4989191;28;20023;-88
2021/01/28 13:23:44;;;;;;;5.53;3.08;;;5.80;99.90;;;;;;4968845;28;20066;-88
2021/01/28 13:26:10;;;;;;;6.30;3.03;;;5.80;99.90;;;;;;4970374;28;20058;-88
2021/01/28 13:28:36;;;;;;;5.85;3.30;;;5.80;99.90;;;;;;4985990;28;20042;-88
2021/01/28 13:31:01;;;;;;;5.13;2.92;;;5.80;99.90;;;;;;4970100;28;20038;-88
2021/01/28 13:33:27;;;;;;;5.55;2.47;;;5.70;99.90;;;;;;4970318;28;20023;-88